sensor_id;sensor_type;location;lat;lon;timestamp;pressure;altitude;pressure_sealevel;temperature;humidity
38267;BME280;24063;51.794;19.578;2022-07-06T00:00:39;98744.15;;;15.05;100.00
38267;BME280;24063;51.794;19.578;2022-07-06T00:01:41;98745.12;;;15.06;100.00
38267;BME280;24063;51.794;19.578;2022-07-06T00:02:43;98744.45;;;15.07;100.00
38267;BME280;24063;51.794;19.578;2022-07-06T00:03:46;98743.86;;;15.06;100.00
38267;BME280;24063;51.794;19.578;2022-07-06T00:04:55;98744.54;;;15.05;100.00
38267;BME280;24063;51.794;19.578;2022-07-06T00:05:57;98742.96;;;15.05;100.00
38267;BME280;24063;51.794;19.578;2022-07-06T00:06:58;98739.73;;;15.06;100.00
38267;BME280;24063;51.794;19.578;2022-07-06T00:08:00;98741.35;;;15.07;100.00
38267;BME280;24063;51.794;19.578;2022-07-06T00:09:04;98738.80;;;15.07;100.00
38267;BME280;24063;51.794;19.578;2022-07-06T00:10:06;98738.80;;;15.07;100.00
38267;BME280;24063;51.794;19.578;2022-07-06T00:11:08;98742.10;;;15.08;100.00
38267;BME280;24063;51.794;19.578;2022-07-06T00:12:10;98742.58;;;15.08;100.00
38267;BME280;24063;51.794;19.578;2022-07-06T00:13:13;98740.70;;;15.09;100.00
38267;BME280;24063;51.794;19.578;2022-07-06T00:14:14;98742.70;;;15.10;100.00
38267;BME280;24063;51.794;19.578;2022-07-06T00:15:16;98742.51;;;15.12;100.00
38267;BME280;24063;51.794;19.578;2022-07-06T00:16:19;98742.04;;;15.14;100.00
38267;BME280;24063;51.794;19.578;2022-07-06T00:17:21;98744.83;;;15.13;100.00
38267;BME280;24063;51.794;19.578;2022-07-06T00:18:23;98740.45;;;15.12;100.00
38267;BME280;24063;51.794;19.578;2022-07-06T00:19:26;98740.24;;;15.11;100.00
38267;BME280;24063;51.794;19.578;2022-07-06T00:20:28;98739.94;;;15.09;100.00
38267;BME280;24063;51.794;19.578;2022-07-06T00:21:30;98738.05;;;15.12;100.00
38267;BME280;24063;51.794;19.578;2022-07-06T00:22:31;98736.20;;;15.14;100.00
38267;BME280;24063;51.794;19.578;2022-07-06T00:23:34;98735.94;;;15.14;100.00
38267;BME280;24063;51.794;19.578;2022-07-06T00:24:36;98736.88;;;15.16;100.00
38267;BME280;24063;51.794;19.578;2022-07-06T00:25:38;98735.34;;;15.18;100.00
38267;BME280;24063;51.794;19.578;2022-07-06T00:26:39;98734.09;;;15.17;100.00
38267;BME280;24063;51.794;19.578;2022-07-06T00:27:41;98735.13;;;15.17;100.00
38267;BME280;24063;51.794;19.578;2022-07-06T00:28:43;98736.92;;;15.17;100.00
38267;BME280;24063;51.794;19.578;2022-07-06T00:29:45;98735.59;;;15.18;100.00
38267;BME280;24063;51.794;19.578;2022-07-06T00:30:47;98737.30;;;15.19;100.00
38267;BME280;24063;51.794;19.578;2022-07-06T00:31:49;98738.39;;;15.19;100.00
38267;BME280;24063;51.794;19.578;2022-07-06T00:32:50;98738.92;;;15.18;100.00
38267;BME280;24063;51.794;19.578;2022-07-06T00:33:52;98738.14;;;15.18;100.00
38267;BME280;24063;51.794;19.578;2022-07-06T00:34:54;98738.14;;;15.18;100.00
38267;BME280;24063;51.794;19.578;2022-07-06T00:35:56;98733.29;;;15.16;100.00
38267;BME280;24063;51.794;19.578;2022-07-06T00:36:59;98730.27;;;15.15;100.00
38267;BME280;24063;51.794;19.578;2022-07-06T00:38:00;98732.46;;;15.14;100.00
38267;BME280;24063;51.794;19.578;2022-07-06T00:39:02;98734.86;;;15.13;100.00
38267;BME280;24063;51.794;19.578;2022-07-06T00:40:05;98733.09;;;15.12;100.00
38267;BME280;24063;51.794;19.578;2022-07-06T00:41:08;98731.30;;;15.12;100.00
38267;BME280;24063;51.794;19.578;2022-07-06T00:42:09;98733.21;;;15.11;100.00
38267;BME280;24063;51.794;19.578;2022-07-06T00:43:11;98731.98;;;15.10;100.00
38267;BME280;24063;51.794;19.578;2022-07-06T00:44:13;98732.30;;;15.08;100.00
38267;BME280;24063;51.794;19.578;2022-07-06T00:45:17;98729.52;;;15.05;100.00
38267;BME280;24063;51.794;19.578;2022-07-06T00:46:22;98726.55;;;15.04;100.00
38267;BME280;24063;51.794;19.578;2022-07-06T00:47:25;98725.34;;;15.02;100.00
38267;BME280;24063;51.794;19.578;2022-07-06T00:48:26;98721.87;;;14.98;100.00
38267;BME280;24063;51.794;19.578;2022-07-06T00:49:28;98718.20;;;14.96;100.00
38267;BME280;24063;51.794;19.578;2022-07-06T00:50:49;98721.54;;;14.98;100.00
38267;BME280;24063;51.794;19.578;2022-07-06T00:51:51;98718.42;;;14.99;100.00
38267;BME280;24063;51.794;19.578;2022-07-06T00:52:56;98716.16;;;14.98;100.00
38267;BME280;24063;51.794;19.578;2022-07-06T00:54:02;98717.02;;;14.98;100.00
38267;BME280;24063;51.794;19.578;2022-07-06T00:55:04;98721.85;;;14.99;100.00
38267;BME280;24063;51.794;19.578;2022-07-06T00:56:06;98715.83;;;15.01;100.00
38267;BME280;24063;51.794;19.578;2022-07-06T00:57:09;98717.55;;;15.01;100.00
38267;BME280;24063;51.794;19.578;2022-07-06T00:58:11;98717.71;;;15.03;100.00
38267;BME280;24063;51.794;19.578;2022-07-06T00:59:12;98715.70;;;15.04;100.00
38267;BME280;24063;51.794;19.578;2022-07-06T01:00:18;98714.52;;;15.06;100.00
38267;BME280;24063;51.794;19.578;2022-07-06T01:01:20;98713.27;;;15.06;100.00
38267;BME280;24063;51.794;19.578;2022-07-06T01:02:24;98713.21;;;15.07;100.00
38267;BME280;24063;51.794;19.578;2022-07-06T01:03:26;98708.39;;;15.08;100.00
38267;BME280;24063;51.794;19.578;2022-07-06T01:04:28;98710.98;;;15.09;100.00
38267;BME280;24063;51.794;19.578;2022-07-06T01:05:30;98706.02;;;15.09;100.00
38267;BME280;24063;51.794;19.578;2022-07-06T01:06:32;98705.29;;;15.12;100.00
38267;BME280;24063;51.794;19.578;2022-07-06T01:07:35;98704.91;;;15.13;100.00
38267;BME280;24063;51.794;19.578;2022-07-06T01:08:38;98706.42;;;15.14;100.00
38267;BME280;24063;51.794;19.578;2022-07-06T01:09:40;98699.81;;;15.13;100.00
38267;BME280;24063;51.794;19.578;2022-07-06T01:10:42;98702.98;;;15.12;100.00
38267;BME280;24063;51.794;19.578;2022-07-06T01:11:44;98700.46;;;15.13;100.00
38267;BME280;24063;51.794;19.578;2022-07-06T01:12:47;98700.85;;;15.13;100.00
38267;BME280;24063;51.794;19.578;2022-07-06T01:13:50;98701.34;;;15.09;100.00
38267;BME280;24063;51.794;19.578;2022-07-06T01:14:53;98703.02;;;15.04;100.00
38267;BME280;24063;51.794;19.578;2022-07-06T01:15:54;98700.94;;;14.99;100.00
38267;BME280;24063;51.794;19.578;2022-07-06T01:16:57;98703.61;;;14.96;100.00
38267;BME280;24063;51.794;19.578;2022-07-06T01:17:59;98700.16;;;14.94;100.00
38267;BME280;24063;51.794;19.578;2022-07-06T01:19:02;98700.80;;;14.95;100.00
38267;BME280;24063;51.794;19.578;2022-07-06T01:20:25;98699.95;;;14.97;100.00
38267;BME280;24063;51.794;19.578;2022-07-06T01:21:27;98703.30;;;14.98;100.00
38267;BME280;24063;51.794;19.578;2022-07-06T01:22:29;98703.16;;;15.00;100.00
38267;BME280;24063;51.794;19.578;2022-07-06T01:23:31;98702.31;;;15.01;100.00
38267;BME280;24063;51.794;19.578;2022-07-06T01:24:35;98701.16;;;15.02;100.00
38267;BME280;24063;51.794;19.578;2022-07-06T01:25:37;98703.00;;;15.00;100.00
38267;BME280;24063;51.794;19.578;2022-07-06T01:26:39;98701.21;;;14.96;100.00
38267;BME280;24063;51.794;19.578;2022-07-06T01:27:42;98698.65;;;14.93;100.00
38267;BME280;24063;51.794;19.578;2022-07-06T01:28:45;98704.70;;;14.94;100.00
38267;BME280;24063;51.794;19.578;2022-07-06T01:29:47;98702.96;;;14.95;100.00
38267;BME280;24063;51.794;19.578;2022-07-06T01:30:48;98699.63;;;14.97;100.00
38267;BME280;24063;51.794;19.578;2022-07-06T01:31:51;98699.48;;;14.98;100.00
38267;BME280;24063;51.794;19.578;2022-07-06T01:32:53;98701.75;;;15.00;100.00
38267;BME280;24063;51.794;19.578;2022-07-06T01:33:56;98700.34;;;14.99;100.00
38267;BME280;24063;51.794;19.578;2022-07-06T01:34:59;98700.25;;;14.98;100.00
38267;BME280;24063;51.794;19.578;2022-07-06T01:36:01;98704.52;;;14.97;100.00
38267;BME280;24063;51.794;19.578;2022-07-06T01:37:03;98701.34;;;14.95;100.00
38267;BME280;24063;51.794;19.578;2022-07-06T01:38:04;98700.98;;;14.96;100.00
38267;BME280;24063;51.794;19.578;2022-07-06T01:39:08;98700.80;;;14.98;100.00
38267;BME280;24063;51.794;19.578;2022-07-06T01:40:12;98700.32;;;15.01;100.00
38267;BME280;24063;51.794;19.578;2022-07-06T01:41:13;98698.98;;;15.02;100.00
38267;BME280;24063;51.794;19.578;2022-07-06T01:42:15;98695.25;;;15.00;100.00
38267;BME280;24063;51.794;19.578;2022-07-06T01:43:19;98694.80;;;15.01;100.00
38267;BME280;24063;51.794;19.578;2022-07-06T01:44:21;98691.16;;;15.01;100.00
38267;BME280;24063;51.794;19.578;2022-07-06T01:45:22;98693.92;;;15.02;100.00
38267;BME280;24063;51.794;19.578;2022-07-06T01:46:25;98692.70;;;15.03;100.00
38267;BME280;24063;51.794;19.578;2022-07-06T01:47:27;98694.02;;;15.05;100.00
38267;BME280;24063;51.794;19.578;2022-07-06T01:48:29;98691.85;;;15.05;100.00
38267;BME280;24063;51.794;19.578;2022-07-06T01:49:31;98693.27;;;15.04;100.00
38267;BME280;24063;51.794;19.578;2022-07-06T01:50:32;98691.51;;;15.03;100.00
38267;BME280;24063;51.794;19.578;2022-07-06T01:51:35;98689.60;;;15.02;100.00
38267;BME280;24063;51.794;19.578;2022-07-06T01:52:37;98693.55;;;15.01;100.00
38267;BME280;24063;51.794;19.578;2022-07-06T01:53:39;98695.36;;;15.01;100.00
38267;BME280;24063;51.794;19.578;2022-07-06T01:54:42;98694.09;;;15.02;100.00
38267;BME280;24063;51.794;19.578;2022-07-06T01:55:44;98696.53;;;15.02;100.00
38267;BME280;24063;51.794;19.578;2022-07-06T01:56:46;98692.88;;;15.02;100.00
38267;BME280;24063;51.794;19.578;2022-07-06T01:57:48;98695.02;;;15.02;100.00
38267;BME280;24063;51.794;19.578;2022-07-06T01:58:50;98691.95;;;15.00;100.00
38267;BME280;24063;51.794;19.578;2022-07-06T01:59:52;98693.00;;;14.99;100.00
38267;BME280;24063;51.794;19.578;2022-07-06T02:00:54;98693.64;;;14.99;100.00
38267;BME280;24063;51.794;19.578;2022-07-06T02:01:56;98691.65;;;14.99;100.00
38267;BME280;24063;51.794;19.578;2022-07-06T02:02:57;98688.58;;;14.97;100.00
38267;BME280;24063;51.794;19.578;2022-07-06T02:03:59;98687.20;;;14.95;100.00
38267;BME280;24063;51.794;19.578;2022-07-06T02:05:01;98687.79;;;14.92;100.00
38267;BME280;24063;51.794;19.578;2022-07-06T02:06:05;98687.13;;;14.90;100.00
38267;BME280;24063;51.794;19.578;2022-07-06T02:07:07;98686.39;;;14.88;100.00
38267;BME280;24063;51.794;19.578;2022-07-06T02:08:09;98688.05;;;14.87;100.00
38267;BME280;24063;51.794;19.578;2022-07-06T02:09:10;98689.55;;;14.86;100.00
38267;BME280;24063;51.794;19.578;2022-07-06T02:10:12;98687.48;;;14.85;100.00
38267;BME280;24063;51.794;19.578;2022-07-06T02:11:14;98686.37;;;14.84;100.00
38267;BME280;24063;51.794;19.578;2022-07-06T02:12:17;98685.06;;;14.81;100.00
38267;BME280;24063;51.794;19.578;2022-07-06T02:13:18;98687.11;;;14.79;100.00
38267;BME280;24063;51.794;19.578;2022-07-06T02:14:20;98686.70;;;14.77;100.00
38267;BME280;24063;51.794;19.578;2022-07-06T02:15:22;98689.09;;;14.76;100.00
38267;BME280;24063;51.794;19.578;2022-07-06T02:16:24;98690.98;;;14.75;100.00
38267;BME280;24063;51.794;19.578;2022-07-06T02:17:26;98691.77;;;14.75;100.00
38267;BME280;24063;51.794;19.578;2022-07-06T02:18:28;98694.00;;;14.74;100.00
38267;BME280;24063;51.794;19.578;2022-07-06T02:19:31;98695.43;;;14.73;100.00
38267;BME280;24063;51.794;19.578;2022-07-06T02:20:32;98692.39;;;14.73;100.00
38267;BME280;24063;51.794;19.578;2022-07-06T02:21:34;98688.36;;;14.73;100.00
38267;BME280;24063;51.794;19.578;2022-07-06T02:22:36;98687.59;;;14.73;100.00
38267;BME280;24063;51.794;19.578;2022-07-06T02:23:38;98688.08;;;14.74;100.00
38267;BME280;24063;51.794;19.578;2022-07-06T02:24:41;98685.89;;;14.75;100.00
38267;BME280;24063;51.794;19.578;2022-07-06T02:25:43;98690.97;;;14.77;100.00
38267;BME280;24063;51.794;19.578;2022-07-06T02:26:46;98689.41;;;14.79;100.00
38267;BME280;24063;51.794;19.578;2022-07-06T02:27:48;98691.96;;;14.78;100.00
38267;BME280;24063;51.794;19.578;2022-07-06T02:28:49;98692.58;;;14.78;100.00
38267;BME280;24063;51.794;19.578;2022-07-06T02:29:51;98692.60;;;14.77;100.00
38267;BME280;24063;51.794;19.578;2022-07-06T02:30:53;98693.27;;;14.76;100.00
38267;BME280;24063;51.794;19.578;2022-07-06T02:31:55;98691.85;;;14.75;100.00
38267;BME280;24063;51.794;19.578;2022-07-06T02:32:57;98697.04;;;14.75;100.00
38267;BME280;24063;51.794;19.578;2022-07-06T02:33:59;98693.94;;;14.75;100.00
38267;BME280;24063;51.794;19.578;2022-07-06T02:35:01;98695.67;;;14.75;100.00
38267;BME280;24063;51.794;19.578;2022-07-06T02:36:03;98692.27;;;14.74;100.00
38267;BME280;24063;51.794;19.578;2022-07-06T02:37:05;98693.55;;;14.72;100.00
38267;BME280;24063;51.794;19.578;2022-07-06T02:38:07;98689.95;;;14.70;100.00
38267;BME280;24063;51.794;19.578;2022-07-06T02:39:09;98694.15;;;14.69;100.00
38267;BME280;24063;51.794;19.578;2022-07-06T02:40:11;98691.98;;;14.69;100.00
38267;BME280;24063;51.794;19.578;2022-07-06T02:41:13;98692.64;;;14.68;100.00
38267;BME280;24063;51.794;19.578;2022-07-06T02:42:15;98690.39;;;14.66;100.00
38267;BME280;24063;51.794;19.578;2022-07-06T02:43:17;98689.52;;;14.64;100.00
38267;BME280;24063;51.794;19.578;2022-07-06T02:44:19;98688.34;;;14.62;100.00
38267;BME280;24063;51.794;19.578;2022-07-06T02:45:21;98684.65;;;14.62;100.00
38267;BME280;24063;51.794;19.578;2022-07-06T02:46:23;98680.89;;;14.63;100.00
38267;BME280;24063;51.794;19.578;2022-07-06T02:47:25;98682.04;;;14.62;100.00
38267;BME280;24063;51.794;19.578;2022-07-06T02:48:28;98682.79;;;14.63;100.00
38267;BME280;24063;51.794;19.578;2022-07-06T02:49:29;98685.37;;;14.64;100.00
38267;BME280;24063;51.794;19.578;2022-07-06T02:50:31;98683.64;;;14.66;100.00
38267;BME280;24063;51.794;19.578;2022-07-06T02:51:33;98680.42;;;14.66;100.00
38267;BME280;24063;51.794;19.578;2022-07-06T02:52:35;98680.03;;;14.68;100.00
38267;BME280;24063;51.794;19.578;2022-07-06T02:53:41;98678.94;;;14.68;100.00
38267;BME280;24063;51.794;19.578;2022-07-06T02:54:43;98675.98;;;14.66;100.00
38267;BME280;24063;51.794;19.578;2022-07-06T02:55:45;98679.38;;;14.65;100.00
38267;BME280;24063;51.794;19.578;2022-07-06T02:56:47;98680.00;;;14.63;100.00
38267;BME280;24063;51.794;19.578;2022-07-06T02:57:54;98679.62;;;14.63;100.00
38267;BME280;24063;51.794;19.578;2022-07-06T02:58:56;98678.85;;;14.64;100.00
38267;BME280;24063;51.794;19.578;2022-07-06T02:59:58;98676.25;;;14.63;100.00
38267;BME280;24063;51.794;19.578;2022-07-06T03:00:59;98673.14;;;14.64;100.00
38267;BME280;24063;51.794;19.578;2022-07-06T03:02:06;98675.38;;;14.64;100.00
38267;BME280;24063;51.794;19.578;2022-07-06T03:03:08;98676.49;;;14.62;100.00
38267;BME280;24063;51.794;19.578;2022-07-06T03:04:11;98677.17;;;14.60;100.00
38267;BME280;24063;51.794;19.578;2022-07-06T03:05:13;98677.74;;;14.58;100.00
38267;BME280;24063;51.794;19.578;2022-07-06T03:06:15;98675.10;;;14.56;100.00
38267;BME280;24063;51.794;19.578;2022-07-06T03:07:16;98675.73;;;14.53;100.00
38267;BME280;24063;51.794;19.578;2022-07-06T03:08:19;98673.58;;;14.51;100.00
38267;BME280;24063;51.794;19.578;2022-07-06T03:09:22;98673.23;;;14.50;100.00
38267;BME280;24063;51.794;19.578;2022-07-06T03:10:25;98670.98;;;14.49;100.00
38267;BME280;24063;51.794;19.578;2022-07-06T03:11:27;98673.58;;;14.47;100.00
38267;BME280;24063;51.794;19.578;2022-07-06T03:12:28;98674.80;;;14.45;100.00
38267;BME280;24063;51.794;19.578;2022-07-06T03:13:30;98673.40;;;14.44;100.00
38267;BME280;24063;51.794;19.578;2022-07-06T03:14:34;98675.17;;;14.42;100.00
38267;BME280;24063;51.794;19.578;2022-07-06T03:15:35;98672.05;;;14.41;100.00
38267;BME280;24063;51.794;19.578;2022-07-06T03:16:38;98674.53;;;14.38;100.00
38267;BME280;24063;51.794;19.578;2022-07-06T03:17:39;98674.25;;;14.36;100.00
38267;BME280;24063;51.794;19.578;2022-07-06T03:18:42;98673.87;;;14.33;100.00
38267;BME280;24063;51.794;19.578;2022-07-06T03:19:44;98670.63;;;14.31;100.00
38267;BME280;24063;51.794;19.578;2022-07-06T03:20:46;98670.42;;;14.30;100.00
38267;BME280;24063;51.794;19.578;2022-07-06T03:21:49;98673.63;;;14.28;100.00
38267;BME280;24063;51.794;19.578;2022-07-06T03:22:51;98670.46;;;14.25;100.00
38267;BME280;24063;51.794;19.578;2022-07-06T03:23:53;98671.52;;;14.24;100.00
38267;BME280;24063;51.794;19.578;2022-07-06T03:24:55;98670.29;;;14.23;100.00
38267;BME280;24063;51.794;19.578;2022-07-06T03:25:57;98664.95;;;14.20;100.00
38267;BME280;24063;51.794;19.578;2022-07-06T03:26:58;98668.23;;;14.18;100.00
38267;BME280;24063;51.794;19.578;2022-07-06T03:28:00;98664.90;;;14.16;100.00
38267;BME280;24063;51.794;19.578;2022-07-06T03:29:02;98665.09;;;14.14;100.00
38267;BME280;24063;51.794;19.578;2022-07-06T03:30:05;98668.30;;;14.11;100.00
38267;BME280;24063;51.794;19.578;2022-07-06T03:31:14;98667.07;;;14.09;100.00
38267;BME280;24063;51.794;19.578;2022-07-06T03:32:16;98667.70;;;14.07;100.00
38267;BME280;24063;51.794;19.578;2022-07-06T03:33:18;98665.02;;;14.05;100.00
38267;BME280;24063;51.794;19.578;2022-07-06T03:34:20;98667.52;;;14.02;100.00
38267;BME280;24063;51.794;19.578;2022-07-06T03:35:22;98658.92;;;14.00;100.00
38267;BME280;24063;51.794;19.578;2022-07-06T03:36:25;98658.98;;;13.98;100.00
38267;BME280;24063;51.794;19.578;2022-07-06T03:37:27;98655.74;;;13.97;100.00
38267;BME280;24063;51.794;19.578;2022-07-06T03:38:29;98654.66;;;13.96;100.00
38267;BME280;24063;51.794;19.578;2022-07-06T03:39:31;98653.73;;;13.93;100.00
38267;BME280;24063;51.794;19.578;2022-07-06T03:40:33;98651.47;;;13.92;100.00
38267;BME280;24063;51.794;19.578;2022-07-06T03:41:35;98653.39;;;13.92;100.00
38267;BME280;24063;51.794;19.578;2022-07-06T03:42:37;98657.05;;;13.91;100.00
38267;BME280;24063;51.794;19.578;2022-07-06T03:43:40;98659.27;;;13.90;100.00
38267;BME280;24063;51.794;19.578;2022-07-06T03:44:42;98659.95;;;13.90;100.00
38267;BME280;24063;51.794;19.578;2022-07-06T03:45:44;98660.27;;;13.89;100.00
38267;BME280;24063;51.794;19.578;2022-07-06T03:46:47;98659.02;;;13.89;100.00
38267;BME280;24063;51.794;19.578;2022-07-06T03:47:50;98660.02;;;13.87;100.00
38267;BME280;24063;51.794;19.578;2022-07-06T03:48:52;98664.56;;;13.89;100.00
38267;BME280;24063;51.794;19.578;2022-07-06T03:49:54;98662.29;;;13.89;100.00
38267;BME280;24063;51.794;19.578;2022-07-06T03:50:56;98661.41;;;13.89;100.00
38267;BME280;24063;51.794;19.578;2022-07-06T03:51:58;98665.46;;;13.91;100.00
38267;BME280;24063;51.794;19.578;2022-07-06T03:53:00;98664.47;;;13.91;100.00
38267;BME280;24063;51.794;19.578;2022-07-06T03:54:02;98667.88;;;13.93;100.00
38267;BME280;24063;51.794;19.578;2022-07-06T03:55:09;98666.34;;;13.94;100.00
38267;BME280;24063;51.794;19.578;2022-07-06T03:56:12;98669.14;;;13.95;100.00
38267;BME280;24063;51.794;19.578;2022-07-06T03:57:32;98665.95;;;13.97;100.00
38267;BME280;24063;51.794;19.578;2022-07-06T03:58:35;98668.39;;;13.98;100.00
38267;BME280;24063;51.794;19.578;2022-07-06T03:59:37;98668.59;;;13.99;100.00
38267;BME280;24063;51.794;19.578;2022-07-06T04:00:39;98670.99;;;14.02;100.00
38267;BME280;24063;51.794;19.578;2022-07-06T04:01:42;98670.48;;;14.04;100.00
38267;BME280;24063;51.794;19.578;2022-07-06T04:02:46;98668.56;;;14.04;100.00
38267;BME280;24063;51.794;19.578;2022-07-06T04:03:52;98667.96;;;14.05;100.00
38267;BME280;24063;51.794;19.578;2022-07-06T04:04:54;98668.90;;;14.03;100.00
38267;BME280;24063;51.794;19.578;2022-07-06T04:05:56;98673.55;;;14.02;100.00
38267;BME280;24063;51.794;19.578;2022-07-06T04:06:58;98666.78;;;14.00;100.00
38267;BME280;24063;51.794;19.578;2022-07-06T04:08:00;98666.49;;;13.98;100.00
38267;BME280;24063;51.794;19.578;2022-07-06T04:09:08;98664.91;;;13.95;100.00
38267;BME280;24063;51.794;19.578;2022-07-06T04:10:12;98664.66;;;13.93;100.00
38267;BME280;24063;51.794;19.578;2022-07-06T04:11:14;98665.98;;;13.92;100.00
38267;BME280;24063;51.794;19.578;2022-07-06T04:12:16;98667.33;;;13.90;100.00
38267;BME280;24063;51.794;19.578;2022-07-06T04:13:18;98669.95;;;13.88;100.00
38267;BME280;24063;51.794;19.578;2022-07-06T04:14:20;98670.51;;;13.87;100.00
38267;BME280;24063;51.794;19.578;2022-07-06T04:15:22;98668.30;;;13.87;100.00
38267;BME280;24063;51.794;19.578;2022-07-06T04:16:24;98666.52;;;13.86;100.00
38267;BME280;24063;51.794;19.578;2022-07-06T04:17:26;98666.36;;;13.86;100.00
38267;BME280;24063;51.794;19.578;2022-07-06T04:18:47;98663.63;;;13.86;100.00
38267;BME280;24063;51.794;19.578;2022-07-06T04:19:49;98666.59;;;13.88;100.00
38267;BME280;24063;51.794;19.578;2022-07-06T04:20:51;98664.40;;;13.89;100.00
38267;BME280;24063;51.794;19.578;2022-07-06T04:21:53;98664.61;;;13.90;100.00
38267;BME280;24063;51.794;19.578;2022-07-06T04:22:56;98664.43;;;13.91;100.00
38267;BME280;24063;51.794;19.578;2022-07-06T04:23:58;98665.92;;;13.92;100.00
38267;BME280;24063;51.794;19.578;2022-07-06T04:25:01;98666.61;;;13.93;100.00
38267;BME280;24063;51.794;19.578;2022-07-06T04:26:03;98668.88;;;13.95;100.00
38267;BME280;24063;51.794;19.578;2022-07-06T04:27:06;98671.30;;;13.96;100.00
38267;BME280;24063;51.794;19.578;2022-07-06T04:28:08;98668.16;;;13.98;100.00
38267;BME280;24063;51.794;19.578;2022-07-06T04:29:09;98668.48;;;14.00;100.00
38267;BME280;24063;51.794;19.578;2022-07-06T04:30:12;98673.05;;;14.03;100.00
38267;BME280;24063;51.794;19.578;2022-07-06T04:31:14;98669.59;;;14.05;100.00
38267;BME280;24063;51.794;19.578;2022-07-06T04:32:19;98665.79;;;14.07;100.00
38267;BME280;24063;51.794;19.578;2022-07-06T04:33:26;98668.32;;;14.09;100.00
38267;BME280;24063;51.794;19.578;2022-07-06T04:34:28;98670.11;;;14.09;100.00
38267;BME280;24063;51.794;19.578;2022-07-06T04:35:30;98669.45;;;14.10;100.00
38267;BME280;24063;51.794;19.578;2022-07-06T04:36:32;98670.84;;;14.11;100.00
38267;BME280;24063;51.794;19.578;2022-07-06T04:37:34;98671.93;;;14.11;100.00
38267;BME280;24063;51.794;19.578;2022-07-06T04:38:36;98669.89;;;14.10;100.00
38267;BME280;24063;51.794;19.578;2022-07-06T04:39:40;98672.83;;;14.09;100.00
38267;BME280;24063;51.794;19.578;2022-07-06T04:40:41;98674.50;;;14.11;100.00
38267;BME280;24063;51.794;19.578;2022-07-06T04:41:46;98676.57;;;14.13;100.00
38267;BME280;24063;51.794;19.578;2022-07-06T04:42:48;98672.81;;;14.14;100.00
38267;BME280;24063;51.794;19.578;2022-07-06T04:43:50;98674.90;;;14.15;100.00
38267;BME280;24063;51.794;19.578;2022-07-06T04:44:53;98675.04;;;14.18;100.00
38267;BME280;24063;51.794;19.578;2022-07-06T04:45:55;98674.04;;;14.19;100.00
38267;BME280;24063;51.794;19.578;2022-07-06T04:46:56;98673.98;;;14.21;100.00
38267;BME280;24063;51.794;19.578;2022-07-06T04:47:58;98675.73;;;14.22;100.00
38267;BME280;24063;51.794;19.578;2022-07-06T04:49:00;98673.91;;;14.22;100.00
38267;BME280;24063;51.794;19.578;2022-07-06T04:50:04;98680.92;;;14.24;100.00
38267;BME280;24063;51.794;19.578;2022-07-06T04:51:06;98677.64;;;14.25;100.00
38267;BME280;24063;51.794;19.578;2022-07-06T04:52:09;98678.76;;;14.26;100.00
38267;BME280;24063;51.794;19.578;2022-07-06T04:53:11;98676.86;;;14.29;100.00
38267;BME280;24063;51.794;19.578;2022-07-06T04:54:14;98675.13;;;14.32;100.00
38267;BME280;24063;51.794;19.578;2022-07-06T04:55:15;98676.96;;;14.36;100.00
38267;BME280;24063;51.794;19.578;2022-07-06T04:56:17;98675.14;;;14.38;100.00
38267;BME280;24063;51.794;19.578;2022-07-06T04:57:19;98676.67;;;14.40;100.00
38267;BME280;24063;51.794;19.578;2022-07-06T04:58:21;98680.52;;;14.42;100.00
38267;BME280;24063;51.794;19.578;2022-07-06T04:59:23;98673.86;;;14.43;100.00
38267;BME280;24063;51.794;19.578;2022-07-06T05:00:25;98674.55;;;14.43;100.00
38267;BME280;24063;51.794;19.578;2022-07-06T05:01:27;98673.09;;;14.43;100.00
38267;BME280;24063;51.794;19.578;2022-07-06T05:02:29;98674.11;;;14.44;100.00
38267;BME280;24063;51.794;19.578;2022-07-06T05:03:33;98674.09;;;14.46;100.00
38267;BME280;24063;51.794;19.578;2022-07-06T05:04:38;98676.52;;;14.47;100.00
38267;BME280;24063;51.794;19.578;2022-07-06T05:05:41;98679.08;;;14.47;100.00
38267;BME280;24063;51.794;19.578;2022-07-06T05:06:44;98682.95;;;14.48;100.00
38267;BME280;24063;51.794;19.578;2022-07-06T05:07:46;98683.85;;;14.50;100.00
38267;BME280;24063;51.794;19.578;2022-07-06T05:08:48;98684.13;;;14.52;100.00
38267;BME280;24063;51.794;19.578;2022-07-06T05:09:50;98685.73;;;14.54;100.00
38267;BME280;24063;51.794;19.578;2022-07-06T05:10:53;98685.23;;;14.56;100.00
38267;BME280;24063;51.794;19.578;2022-07-06T05:11:55;98685.20;;;14.57;100.00
38267;BME280;24063;51.794;19.578;2022-07-06T05:12:57;98691.08;;;14.59;99.87
38267;BME280;24063;51.794;19.578;2022-07-06T05:14:00;98689.34;;;14.61;100.00
38267;BME280;24063;51.794;19.578;2022-07-06T05:15:02;98687.95;;;14.63;100.00
38267;BME280;24063;51.794;19.578;2022-07-06T05:16:05;98691.04;;;14.67;100.00
38267;BME280;24063;51.794;19.578;2022-07-06T05:17:07;98689.56;;;14.70;99.71
38267;BME280;24063;51.794;19.578;2022-07-06T05:18:09;98691.52;;;14.73;98.64
38267;BME280;24063;51.794;19.578;2022-07-06T05:19:10;98695.79;;;14.75;97.32
38267;BME280;24063;51.794;19.578;2022-07-06T05:20:12;98697.85;;;14.75;96.92
38267;BME280;24063;51.794;19.578;2022-07-06T05:21:16;98695.54;;;14.77;96.97
38267;BME280;24063;51.794;19.578;2022-07-06T05:22:18;98695.38;;;14.80;97.35
38267;BME280;24063;51.794;19.578;2022-07-06T05:23:20;98693.79;;;14.80;96.81